Portada
METAR-TAF:

METAR-TAF

Aeroports :

Guiyang, Xina

latitud: 26-32-19N, longitud: 106-48-03E, altitud: 1139 m

Observació

L'informe es va fer fa 1 hora i 14 minuts, a les 15:00 UTC
Vent 2 kt amb direcció variable
Temperatura 22°C
Humitat 83%
Pressió 1015 hPa
Visibilitat 10 km o més
Núvols disperses a una alçada de 2300 ft
Cel ennuvolat a una alçada de 4300 ft

METAR: ZUGY 301500Z VRB01MPS 9999 SCT023 BKN043 22/19 Q1015 NOSIG

Hora: 00:14 (16:14 UTC)

Pronòstic

L'informe es va fer fa 7 hores i 4 minuts, a les 09:10 UTC
Pronòstic vàlid del 30 a les 12 UTC al 31 a les 12 UTC
Vent 8 kt del Sud
Visibilitat: 6000 m
Cel cobert a una alçada de 4000 ft
Temporalment
l' 31 a les 08 UTC al 31 a les 12 UTC
Cel ennuvolat a una alçada de 1500 ft
Escasses núvols a una alçada de 3000 ft, Cumulonimbus.
Cel cobert a una alçada de 4000 ft
tempesta, pluja

TAF: ZUGY 300910Z 3012/3112 19004MPS 6000 OVC040 TX27/3107Z TN19/3022Z TEMPO 3108/3112 -TSRA BKN015 FEW030CB OVC040

Observacions i pronòstics meteorològics de més de 4000 aeroports (METAR i TAF).

Les estacions disponibles són els punts grocs i vermells al mapa.

Posi el ratolí al punt desitjat per veure el nom de l'estació.

Feu clic per veure les observacions i els pronòstics meteorològics.

Per canviar el mapa: feu clic els botons verds amb una creu de color negre per apropar; al botó verd amb un guió per allunyar la imatge; o en les fletxes verdes per a mapes adjacents.


METAR-TAF: